Time;durP1;ratioP1;P1;durP2;ratioP2;P2;SDS_P1;SDS_P2;PMS_P1;PMS_P2;Temp;Humidity;BMP_temperature;BMP_pressure;BME280_temperature;BME280_humidity;BME280_pressure;Samples;Min_cycle;Max_cycle;Signal;HPM_P1;HPM_P2
2024/04/07 00:00:23;;;;;;;;;;;18.30;67.90;;;;;;5041474;28;1999;-68
2024/04/07 00:02:50;;;;;;;;;;;18.30;67.90;;;;;;5041600;28;2209;-70
2024/04/07 00:05:15;;;;;;;;;;;18.30;67.90;;;;;;5040817;28;1463;-72
2024/04/07 00:07:41;;;;;;;;;;;18.30;68.60;;;;;;5041432;28;1507;-71
2024/04/07 00:10:06;;;;;;;;;;;18.30;67.90;;;;;;5055798;28;1450;-70
2024/04/07 00:12:31;;;;;;;;;;;18.30;67.90;;;;;;5040358;28;1638;-70
2024/04/07 00:14:57;;;;;;;;;;;18.30;67.90;;;;;;5041573;28;1545;-70
2024/04/07 00:17:22;;;;;;;;;;;18.30;67.90;;;;;;5038302;28;1393;-70
2024/04/07 00:19:48;;;;;;;;;;;18.30;67.90;;;;;;5041632;28;1914;-70
2024/04/07 00:22:13;;;;;;;;;;;18.30;67.90;;;;;;5043372;28;1245;-70
2024/04/07 00:24:39;;;;;;;;;;;18.30;67.90;;;;;;5042589;28;1563;-72
2024/04/07 00:27:05;;;;;;;;;;;18.30;67.90;;;;;;5042406;28;1292;-71
2024/04/07 00:29:30;;;;;;;;;;;18.30;67.90;;;;;;5040169;28;1488;-72
2024/04/07 00:31:56;;;;;;;;;;;18.30;67.90;;;;;;5041030;28;1086;-71
2024/04/07 00:34:21;;;;;;;;;;;18.30;67.90;;;;;;5042190;28;1329;-72
2024/04/07 00:36:47;;;;;;;;;;;18.30;67.90;;;;;;5055453;28;1505;-72
2024/04/07 00:39:13;;;;;;;;;;;18.30;67.90;;;;;;5038827;28;1631;-71
2024/04/07 00:41:38;;;;;;;;;;;18.30;67.90;;;;;;5042365;28;1965;-72
2024/04/07 00:44:04;;;;;;;;;;;18.30;67.90;;;;;;5041943;28;1337;-72
2024/04/07 00:46:30;;;;;;;;;;;18.30;68.00;;;;;;5042677;28;1585;-72
2024/04/07 00:48:55;;;;;;;;;;;18.30;67.90;;;;;;5057569;28;1556;-72
2024/04/07 00:51:21;;;;;;;;;;;18.30;67.90;;;;;;5041881;28;1493;-72
2024/04/07 00:53:46;;;;;;;;;;;18.30;68.00;;;;;;5041153;28;1623;-72
2024/04/07 00:56:12;;;;;;;;;;;18.30;67.90;;;;;;5071786;28;1652;-72
2024/04/07 00:58:37;;;;;;;;;;;18.30;67.90;;;;;;5039858;28;1476;-72
2024/04/07 01:01:04;;;;;;;;;;;18.30;67.90;;;;;;5048158;28;1964;-72
2024/04/07 01:03:29;;;;;;;;;;;18.30;67.90;;;;;;5040979;28;1407;-68
2024/04/07 01:05:54;;;;;;;;;;;18.30;68.00;;;;;;5041395;28;1694;-68
2024/04/07 01:08:20;;;;;;;;;;;18.30;68.70;;;;;;5070929;28;1380;-72
2024/04/07 01:10:49;;;;;;;;;;;18.30;68.00;;;;;;5043569;28;1163;-72
2024/04/07 01:13:14;;;;;;;;;;;18.30;68.00;;;;;;5037424;28;1541;-72
2024/04/07 01:15:39;;;;;;;;;;;18.30;68.00;;;;;;5040515;28;1353;-72
2024/04/07 01:18:05;;;;;;;;;;;18.30;68.00;;;;;;5041641;28;1248;-72
2024/04/07 01:20:32;;;;;;;;;;;18.30;68.00;;;;;;5036107;28;1902;-72
2024/04/07 01:22:57;;;;;;;;;;;18.30;68.00;;;;;;5049183;28;1032;-70
2024/04/07 01:25:22;;;;;;;;;;;18.30;68.00;;;;;;5042177;28;1494;-70
2024/04/07 01:28:01;;;;;;;;;;;18.30;68.00;;;;;;5047716;28;1500;-74
2024/04/07 01:30:26;;;;;;;;;;;18.30;68.00;;;;;;5049013;28;1355;-74
2024/04/07 01:32:52;;;;;;;;;;;18.30;68.00;;;;;;5042534;28;1559;-74
2024/04/07 01:35:18;;;;;;;;;;;18.30;68.00;;;;;;5041242;28;1346;-74
2024/04/07 01:37:43;;;;;;;;;;;18.30;68.00;;;;;;5042913;28;1291;-74
2024/04/07 01:40:09;;;;;;;;;;;18.30;68.00;;;;;;5039299;28;1972;-74
2024/04/07 01:42:35;;;;;;;;;;;18.30;68.00;;;;;;5040619;28;1470;-70
2024/04/07 01:45:00;;;;;;;;;;;18.30;68.00;;;;;;5039690;28;1365;-70
2024/04/07 01:47:26;;;;;;;;;;;18.30;68.00;;;;;;5038914;28;1547;-72
2024/04/07 01:49:51;;;;;;;;;;;18.30;68.00;;;;;;5039543;28;1278;-72
2024/04/07 01:52:17;;;;;;;;;;;18.30;68.00;;;;;;5040370;28;1438;-72
2024/04/07 01:54:43;;;;;;;;;;;18.20;68.00;;;;;;5074315;28;1466;-72
2024/04/07 01:57:08;;;;;;;;;;;18.30;68.00;;;;;;5047010;28;1623;-72
2024/04/07 01:59:34;;;;;;;;;;;18.30;68.00;;;;;;5037454;28;1635;-72
2024/04/07 02:01:59;;;;;;;;;;;18.30;68.00;;;;;;5055661;28;1902;-71
2024/04/07 02:04:27;;;;;;;;;;;18.30;68.00;;;;;;5043106;28;1572;-71
2024/04/07 02:06:52;;;;;;;;;;;18.30;68.00;;;;;;5043600;28;1406;-70
2024/04/07 02:09:18;;;;;;;;;;;18.20;68.00;;;;;;5042770;28;1351;-69
2024/04/07 02:11:43;;;;;;;;;;;18.20;68.00;;;;;;5024428;28;1447;-69
2024/04/07 02:14:09;;;;;;;;;;;18.30;68.00;;;;;;5039778;28;1406;-69
2024/04/07 02:16:35;;;;;;;;;;;18.20;68.00;;;;;;5040845;28;1301;-71
2024/04/07 02:19:00;;;;;;;;;;;18.30;68.00;;;;;;5040953;28;1415;-74
2024/04/07 02:21:26;;;;;;;;;;;18.20;68.00;;;;;;5071688;28;1977;-74
2024/04/07 02:23:51;;;;;;;;;;;18.30;68.00;;;;;;5037575;28;1217;-72
2024/04/07 02:26:17;;;;;;;;;;;18.30;68.00;;;;;;5070897;28;1466;-72
2024/04/07 02:28:42;;;;;;;;;;;18.30;68.00;;;;;;5038413;28;1455;-71
2024/04/07 02:31:07;;;;;;;;;;;18.20;68.00;;;;;;5069365;28;1359;-71
2024/04/07 02:33:33;;;;;;;;;;;18.20;68.00;;;;;;5041310;28;1003;-71
2024/04/07 02:35:58;;;;;;;;;;;18.30;68.10;;;;;;5041907;28;1386;-71
2024/04/07 02:38:24;;;;;;;;;;;18.20;68.00;;;;;;5036850;28;1589;-71
2024/04/07 02:40:49;;;;;;;;;;;18.20;68.00;;;;;;5048219;28;1906;-71
2024/04/07 02:43:15;;;;;;;;;;;18.20;68.00;;;;;;5072899;28;1356;-71
2024/04/07 02:48:24;;;;;;;;;;;18.20;68.00;;;;;;5040238;28;1461;-71
2024/04/07 02:50:50;;;;;;;;;;;18.30;68.10;;;;;;5039072;28;1610;-71
2024/04/07 02:53:15;;;;;;;;;;;18.30;68.10;;;;;;5040357;28;1453;-71
2024/04/07 02:55:41;;;;;;;;;;;18.30;68.10;;;;;;5037947;28;1284;-71
2024/04/07 02:58:06;;;;;;;;;;;18.20;68.10;;;;;;5040149;28;1262;-71
2024/04/07 03:00:32;;;;;;;;;;;18.20;68.70;;;;;;5069124;28;1957;-72
2024/04/07 03:02:57;;;;;;;;;;;18.20;68.00;;;;;;5039445;28;1110;-72
2024/04/07 03:05:23;;;;;;;;;;;18.20;68.10;;;;;;5037427;28;1567;-72
2024/04/07 03:07:51;;;;;;;;;;;18.20;68.00;;;;;;5069130;28;1486;-72
2024/04/07 03:10:18;;;;;;;;;;;18.30;68.10;;;;;;5036936;28;1484;-71
2024/04/07 03:12:44;;;;;;;;;;;18.20;68.00;;;;;;5039136;28;1304;-71
2024/04/07 03:15:09;;;;;;;;;;;18.20;68.10;;;;;;5037636;28;1539;-71
2024/04/07 03:17:35;;;;;;;;;;;18.20;68.00;;;;;;5036339;28;1348;-71
2024/04/07 03:20:00;;;;;;;;;;;18.20;68.00;;;;;;5044181;28;1910;-72
2024/04/07 03:22:26;;;;;;;;;;;18.20;68.00;;;;;;5055315;28;1141;-71
2024/04/07 03:24:51;;;;;;;;;;;18.20;68.00;;;;;;5038709;28;1506;-72
2024/04/07 03:27:17;;;;;;;;;;;18.20;68.00;;;;;;5038622;28;1355;-71
2024/04/07 03:29:42;;;;;;;;;;;18.20;68.80;;;;;;5037939;28;1576;-71
2024/04/07 03:32:08;;;;;;;;;;;18.20;68.10;;;;;;5038669;28;1444;-72
2024/04/07 03:34:33;;;;;;;;;;;18.20;68.10;;;;;;5035067;28;1782;-71
2024/04/07 03:36:59;;;;;;;;;;;18.20;68.00;;;;;;5040961;28;1305;-71
2024/04/07 03:39:25;;;;;;;;;;;18.20;68.10;;;;;;5046914;28;1150;-71
2024/04/07 03:41:51;;;;;;;;;;;18.20;68.10;;;;;;5039525;28;1923;-72
2024/04/07 03:44:16;;;;;;;;;;;18.20;68.10;;;;;;5070652;28;1568;-72
2024/04/07 03:46:42;;;;;;;;;;;18.20;68.10;;;;;;5037218;28;1363;-72
2024/04/07 03:49:07;;;;;;;;;;;18.20;68.10;;;;;;5069689;28;1267;-72
2024/04/07 03:51:32;;;;;;;;;;;18.20;68.10;;;;;;5043049;28;1531;-72
2024/04/07 03:53:58;;;;;;;;;;;18.20;68.10;;;;;;5036683;28;1358;-72
2024/04/07 03:56:23;;;;;;;;;;;18.20;68.10;;;;;;5038723;28;1637;-72
2024/04/07 03:58:49;;;;;;;;;;;18.20;68.10;;;;;;5039072;28;1469;-72
2024/04/07 04:01:15;;;;;;;;;;;18.20;68.10;;;;;;5038026;28;1899;-71
2024/04/07 04:03:43;;;;;;;;;;;18.20;68.10;;;;;;5036172;28;1533;-72
2024/04/07 04:06:09;;;;;;;;;;;18.20;68.10;;;;;;5036850;28;1256;-72
2024/04/07 04:08:34;;;;;;;;;;;18.20;68.10;;;;;;5038277;28;1462;-71
2024/04/07 04:11:03;;;;;;;;;;;18.20;68.10;;;;;;5040800;28;1177;-71
2024/04/07 04:13:28;;;;;;;;;;;18.20;68.10;;;;;;5042259;28;1521;-71
2024/04/07 04:15:54;;;;;;;;;;;18.20;68.10;;;;;;5039045;28;1288;-72
2024/04/07 04:18:19;;;;;;;;;;;18.20;68.10;;;;;;5042101;28;1321;-72
2024/04/07 04:20:45;;;;;;;;;;;18.20;68.10;;;;;;5044274;28;1902;-72
2024/04/07 04:23:10;;;;;;;;;;;18.20;68.10;;;;;;5039168;28;1719;-71
2024/04/07 04:25:37;;;;;;;;;;;18.20;68.10;;;;;;5074609;28;1268;-71
2024/04/07 04:28:03;;;;;;;;;;;18.20;68.10;;;;;;5040036;28;1330;-72
2024/04/07 04:30:28;;;;;;;;;;;18.20;68.10;;;;;;5042388;28;1240;-71
2024/04/07 04:32:54;;;;;;;;;;;18.20;68.10;;;;;;5040086;28;1434;-72
2024/04/07 04:35:19;;;;;;;;;;;18.20;68.10;;;;;;5072888;28;1576;-71
2024/04/07 04:37:45;;;;;;;;;;;18.20;68.10;;;;;;5041120;28;1279;-71
2024/04/07 04:40:11;;;;;;;;;;;18.20;68.20;;;;;;5041801;28;1902;-72
2024/04/07 04:42:37;;;;;;;;;;;18.20;68.20;;;;;;5041524;28;1714;-72
2024/04/07 04:45:04;;;;;;;;;;;18.20;68.10;;;;;;5041678;28;1233;-71
2024/04/07 04:47:29;;;;;;;;;;;18.20;68.10;;;;;;5039356;28;1532;-71
2024/04/07 04:49:54;;;;;;;;;;;18.20;68.10;;;;;;5041692;28;1504;-71
2024/04/07 04:52:20;;;;;;;;;;;18.20;68.10;;;;;;5041364;28;1005;-72
2024/04/07 04:54:45;;;;;;;;;;;18.20;68.10;;;;;;5038825;28;1235;-72
2024/04/07 04:57:11;;;;;;;;;;;18.20;68.10;;;;;;5040006;28;1284;-72
2024/04/07 04:59:36;;;;;;;;;;;18.20;68.10;;;;;;5041446;28;1388;-72
2024/04/07 05:02:02;;;;;;;;;;;18.20;68.10;;;;;;5040473;28;1957;-71
2024/04/07 05:04:27;;;;;;;;;;;18.20;68.10;;;;;;5041006;28;1353;-71
2024/04/07 05:06:53;;;;;;;;;;;18.20;68.10;;;;;;5040686;28;1339;-72
2024/04/07 05:09:18;;;;;;;;;;;18.20;68.10;;;;;;5072829;28;1079;-71
2024/04/07 05:11:44;;;;;;;;;;;18.20;68.10;;;;;;5044343;28;1605;-71
2024/04/07 05:14:09;;;;;;;;;;;18.20;68.10;;;;;;5043591;28;1381;-72
2024/04/07 05:16:34;;;;;;;;;;;18.20;68.10;;;;;;5048116;28;1417;-72
2024/04/07 05:19:03;;;;;;;;;;;18.20;68.10;;;;;;5040967;28;1526;-71
2024/04/07 05:21:29;;;;;;;;;;;18.20;68.20;;;;;;5039231;28;1955;-71
2024/04/07 05:23:54;;;;;;;;;;;18.20;68.20;;;;;;5073100;28;1351;-71
2024/04/07 05:26:21;;;;;;;;;;;18.20;68.10;;;;;;5074770;28;1522;-71
2024/04/07 05:28:46;;;;;;;;;;;18.20;68.10;;;;;;5042320;28;1411;-71
2024/04/07 05:31:12;;;;;;;;;;;18.20;68.10;;;;;;5042837;28;1190;-71
2024/04/07 05:33:47;;;;;;;;;;;18.20;68.10;;;;;;5047980;28;1541;-71
2024/04/07 05:36:13;;;;;;;;;;;18.20;68.20;;;;;;5040444;28;1363;-71
2024/04/07 05:38:39;;;;;;;;;;;18.20;68.10;;;;;;5037389;28;1326;-71
2024/04/07 05:41:04;;;;;;;;;;;18.20;68.10;;;;;;5041271;28;1957;-71
2024/04/07 05:43:32;;;;;;;;;;;18.20;68.20;;;;;;5039725;28;1230;-71
2024/04/07 05:46:02;;;;;;;;;;;18.20;68.10;;;;;;5038217;28;1579;-71
2024/04/07 05:48:29;;;;;;;;;;;18.20;68.10;;;;;;5038758;28;1708;-71
2024/04/07 05:50:55;;;;;;;;;;;18.20;68.20;;;;;;5040111;28;1685;-71
2024/04/07 05:53:20;;;;;;;;;;;18.20;68.20;;;;;;5041983;28;1474;-71
2024/04/07 05:55:45;;;;;;;;;;;18.20;68.20;;;;;;5042934;28;1592;-71
2024/04/07 05:58:12;;;;;;;;;;;18.20;68.20;;;;;;5038933;28;1439;-71
2024/04/07 06:00:37;;;;;;;;;;;18.20;68.10;;;;;;5037887;28;1898;-71
2024/04/07 06:03:03;;;;;;;;;;;18.20;68.20;;;;;;5038852;28;1666;-72
2024/04/07 06:05:29;;;;;;;;;;;18.20;68.20;;;;;;5076166;28;1512;-72
2024/04/07 06:07:54;;;;;;;;;;;18.20;68.20;;;;;;5036443;28;1644;-71
2024/04/07 06:10:20;;;;;;;;;;;18.20;68.20;;;;;;5052268;28;1534;-71
2024/04/07 06:12:45;;;;;;;;;;;18.20;68.20;;;;;;5053090;28;1188;-71
2024/04/07 06:15:11;;;;;;;;;;;18.20;68.20;;;;;;5038851;28;1531;-70
2024/04/07 06:17:36;;;;;;;;;;;18.20;68.20;;;;;;5023461;28;2118;-70
2024/04/07 06:20:03;;;;;;;;;;;18.20;69.20;;;;;;5069996;28;1983;-70
2024/04/07 06:22:29;;;;;;;;;;;18.20;69.80;;;;;;5040248;28;1446;-70
2024/04/07 06:24:57;;;;;;;;;;;18.20;69.80;;;;;;5037773;28;1313;-70
2024/04/07 06:27:22;;;;;;;;;;;18.20;70.20;;;;;;5039435;28;1477;-70
2024/04/07 06:29:48;;;;;;;;;;;18.20;70.20;;;;;;5039368;28;1444;-70
2024/04/07 06:32:14;;;;;;;;;;;18.20;70.10;;;;;;5038193;28;1204;-69
2024/04/07 06:34:39;;;;;;;;;;;18.20;70.10;;;;;;5069094;28;2298;-70
2024/04/07 06:37:05;;;;;;;;;;;18.20;69.90;;;;;;5036394;28;1845;-70
2024/04/07 06:39:30;;;;;;;;;;;18.20;69.70;;;;;;5038177;28;1478;-69
2024/04/07 06:41:55;;;;;;;;;;;18.20;69.60;;;;;;5038668;28;1898;-69
2024/04/07 06:44:21;;;;;;;;;;;18.30;69.10;;;;;;5039344;28;1404;-70
2024/04/07 06:46:46;;;;;;;;;;;18.30;68.90;;;;;;5036831;28;1823;-70
2024/04/07 06:49:12;;;;;;;;;;;18.30;69.20;;;;;;5039251;28;1490;-70
2024/04/07 06:51:37;;;;;;;;;;;18.30;67.30;;;;;;5036850;28;1416;-70
2024/04/07 06:54:03;;;;;;;;;;;18.30;66.40;;;;;;5039078;28;1575;-70
2024/04/07 06:56:29;;;;;;;;;;;18.30;66.00;;;;;;5037510;28;1347;-69
2024/04/07 06:58:55;;;;;;;;;;;18.30;65.40;;;;;;5036275;28;1769;-70
2024/04/07 07:01:20;;;;;;;;;;;18.30;65.10;;;;;;5046469;28;2066;-70
2024/04/07 07:03:46;;;;;;;;;;;18.30;64.80;;;;;;5035621;28;1438;-70
2024/04/07 07:06:14;;;;;;;;;;;18.30;64.80;;;;;;5037720;28;1948;-70
2024/04/07 07:08:42;;;;;;;;;;;18.30;64.40;;;;;;5046966;28;1545;-69
2024/04/07 07:11:08;;;;;;;;;;;18.30;64.20;;;;;;5038908;28;1465;-69
2024/04/07 07:13:40;;;;;;;;;;;18.40;63.50;;;;;;5038920;28;1493;-69
2024/04/07 07:16:05;;;;;;;;;;;18.40;63.60;;;;;;5069634;28;2305;-69
2024/04/07 07:18:31;;;;;;;;;;;18.40;63.50;;;;;;5036199;28;2169;-69
2024/04/07 07:20:56;;;;;;;;;;;18.40;63.70;;;;;;5035775;28;2131;-69
2024/04/07 07:23:22;;;;;;;;;;;18.40;64.30;;;;;;5040561;28;1362;-69
2024/04/07 07:25:47;;;;;;;;;;;18.40;64.10;;;;;;5038458;28;1363;-69
2024/04/07 07:28:13;;;;;;;;;;;18.40;64.10;;;;;;5038048;28;2178;-69
2024/04/07 07:30:38;;;;;;;;;;;18.40;64.20;;;;;;5038686;28;1923;-69
2024/04/07 07:33:05;;;;;;;;;;;18.30;64.10;;;;;;5039063;28;2085;-70
2024/04/07 07:35:30;;;;;;;;;;;18.40;64.40;;;;;;5069605;28;1357;-69
2024/04/07 07:37:56;;;;;;;;;;;18.40;65.00;;;;;;5036453;28;1362;-69
2024/04/07 07:40:22;;;;;;;;;;;18.40;64.30;;;;;;5052753;28;2005;-69
2024/04/07 07:42:47;;;;;;;;;;;18.40;63.70;;;;;;5036065;28;1573;-69
2024/04/07 07:45:13;;;;;;;;;;;18.40;64.20;;;;;;5039242;28;1171;-69
2024/04/07 07:47:38;;;;;;;;;;;18.40;64.40;;;;;;5040153;28;1296;-69
2024/04/07 07:50:04;;;;;;;;;;;18.40;64.70;;;;;;5074444;28;1509;-69
2024/04/07 07:52:30;;;;;;;;;;;18.50;65.20;;;;;;5072877;28;1700;-69
2024/04/07 07:54:59;;;;;;;;;;;18.50;64.30;;;;;;5039083;28;1312;-69
2024/04/07 07:57:24;;;;;;;;;;;18.40;64.80;;;;;;5040348;28;1616;-69
2024/04/07 07:59:50;;;;;;;;;;;18.50;64.50;;;;;;5041648;28;1506;-69
2024/04/07 08:02:16;;;;;;;;;;;18.50;64.10;;;;;;5040054;28;1942;-69
2024/04/07 08:04:41;;;;;;;;;;;18.50;64.40;;;;;;5041518;28;1488;-69
2024/04/07 08:07:07;;;;;;;;;;;18.50;65.10;;;;;;5043941;28;1398;-69
2024/04/07 08:09:37;;;;;;;;;;;18.50;65.80;;;;;;5042410;28;1887;-71
2024/04/07 08:12:11;;;;;;;;;;;18.50;65.70;;;;;;5046188;28;2458;-70
2024/04/07 08:14:37;;;;;;;;;;;18.50;66.50;;;;;;5040611;28;1509;-70
2024/04/07 08:17:04;;;;;;;;;;;18.50;66.30;;;;;;5040796;28;1479;-70
2024/04/07 08:19:29;;;;;;;;;;;18.50;66.40;;;;;;5074277;28;1715;-70
2024/04/07 08:21:54;;;;;;;;;;;18.50;66.70;;;;;;5039251;28;1909;-70
2024/04/07 08:24:20;;;;;;;;;;;18.50;66.80;;;;;;5040732;28;1432;-70
2024/04/07 08:26:45;;;;;;;;;;;18.50;67.00;;;;;;5038129;28;1377;-70
2024/04/07 08:29:11;;;;;;;;;;;18.50;66.90;;;;;;5042238;28;1367;-70
2024/04/07 08:31:36;;;;;;;;;;;18.50;66.40;;;;;;5039655;28;1674;-70
2024/04/07 08:34:02;;;;;;;;;;;18.50;66.70;;;;;;5041802;28;1295;-70
2024/04/07 08:36:27;;;;;;;;;;;18.50;65.50;;;;;;5040842;28;1478;-70
2024/04/07 08:38:53;;;;;;;;;;;18.50;66.00;;;;;;5042828;28;1571;-70
2024/04/07 08:41:18;;;;;;;;;;;18.50;65.70;;;;;;5043227;28;1980;-70
2024/04/07 08:43:46;;;;;;;;;;;18.50;65.50;;;;;;5072900;28;1462;-70
2024/04/07 08:46:13;;;;;;;;;;;18.50;65.20;;;;;;5040066;28;1426;-70
2024/04/07 08:48:40;;;;;;;;;;;18.60;65.20;;;;;;5040091;28;2416;-70
2024/04/07 08:51:06;;;;;;;;;;;18.60;65.30;;;;;;5040885;28;1369;-70
2024/04/07 08:53:32;;;;;;;;;;;18.60;65.80;;;;;;5039602;28;1487;-70
2024/04/07 08:55:57;;;;;;;;;;;18.60;65.80;;;;;;5076608;28;1296;-70
2024/04/07 08:58:23;;;;;;;;;;;18.60;65.70;;;;;;5042898;28;1102;-70
2024/04/07 09:00:48;;;;;;;;;;;18.60;65.70;;;;;;5045584;28;1960;-70
2024/04/07 09:03:14;;;;;;;;;;;18.60;65.80;;;;;;5039442;28;1488;-70
2024/04/07 09:05:39;;;;;;;;;;;18.60;65.80;;;;;;5048423;28;1576;-70
2024/04/07 09:08:05;;;;;;;;;;;18.60;65.80;;;;;;5048750;28;2045;-69
2024/04/07 09:10:31;;;;;;;;;;;18.60;66.00;;;;;;5042718;28;1240;-69
2024/04/07 09:12:58;;;;;;;;;;;18.60;65.90;;;;;;5048667;28;1703;-69
2024/04/07 09:15:23;;;;;;;;;;;18.60;65.50;;;;;;5039983;28;1332;-69
2024/04/07 09:17:49;;;;;;;;;;;18.60;64.30;;;;;;5041395;28;1260;-69
2024/04/07 09:20:18;;;;;;;;;;;18.70;63.90;;;;;;5072197;28;2062;-69
2024/04/07 09:22:45;;;;;;;;;;;18.70;64.00;;;;;;5048984;28;1532;-69
2024/04/07 09:25:10;;;;;;;;;;;18.70;63.50;;;;;;5043478;28;1404;-69
2024/04/07 09:27:35;;;;;;;;;;;18.70;63.20;;;;;;5040453;28;1427;-69
2024/04/07 09:30:05;;;;;;;;;;;18.70;63.10;;;;;;5074095;28;1300;-69
2024/04/07 09:32:30;;;;;;;;;;;18.70;63.00;;;;;;5041735;28;1272;-69
2024/04/07 09:34:56;;;;;;;;;;;18.70;63.70;;;;;;5072691;28;1739;-69
2024/04/07 09:37:21;;;;;;;;;;;18.70;63.80;;;;;;5042357;28;1951;-69
2024/04/07 09:39:47;;;;;;;;;;;18.70;63.60;;;;;;5072149;28;1429;-70
2024/04/07 09:42:14;;;;;;;;;;;18.70;63.60;;;;;;5037500;28;1965;-69
2024/04/07 09:44:43;;;;;;;;;;;18.70;63.50;;;;;;5071793;28;1691;-69
2024/04/07 09:47:09;;;;;;;;;;;18.80;63.30;;;;;;5046782;28;1474;-69
2024/04/07 09:49:35;;;;;;;;;;;18.80;63.40;;;;;;5047880;28;1560;-69
2024/04/07 09:52:01;;;;;;;;;;;18.80;63.10;;;;;;5072122;28;1644;-69
2024/04/07 09:54:40;;;;;;;;;;;18.80;62.90;;;;;;5069940;28;1604;-69
2024/04/07 09:57:08;;;;;;;;;;;18.80;62.40;;;;;;5040898;28;1445;-70
2024/04/07 09:59:35;;;;;;;;;;;18.80;63.20;;;;;;5040550;28;1315;-69
2024/04/07 10:02:01;;;;;;;;;;;18.80;62.70;;;;;;5072796;28;1898;-69
2024/04/07 10:04:26;;;;;;;;;;;18.80;62.70;;;;;;5039638;28;1502;-70
2024/04/07 10:06:52;;;;;;;;;;;18.80;63.20;;;;;;5040880;28;1378;-70
2024/04/07 10:09:18;;;;;;;;;;;18.80;63.40;;;;;;5069761;28;1465;-69
2024/04/07 10:11:46;;;;;;;;;;;18.80;63.50;;;;;;5040638;28;1757;-69
2024/04/07 10:14:15;;;;;;;;;;;18.80;63.50;;;;;;5037949;28;1511;-69
2024/04/07 10:16:42;;;;;;;;;;;18.80;63.90;;;;;;5039276;28;1616;-70
2024/04/07 10:19:08;;;;;;;;;;;18.80;64.20;;;;;;5037278;28;1461;-69
2024/04/07 10:21:33;;;;;;;;;;;18.80;64.10;;;;;;5039551;28;1968;-70
2024/04/07 10:23:58;;;;;;;;;;;18.80;64.00;;;;;;5039933;28;982;-70
2024/04/07 10:26:24;;;;;;;;;;;18.80;64.40;;;;;;5039886;28;1346;-69
2024/04/07 10:28:50;;;;;;;;;;;18.80;64.40;;;;;;5040048;28;1450;-69
2024/04/07 10:31:22;;;;;;;;;;;18.80;63.70;;;;;;5071644;28;1485;-70
2024/04/07 10:33:49;;;;;;;;;;;18.80;63.70;;;;;;5038032;28;1521;-70
2024/04/07 10:36:15;;;;;;;;;;;18.80;65.00;;;;;;5070616;28;1220;-70
2024/04/07 10:38:48;;;;;;;;;;;18.80;64.00;;;;;;5073172;28;1967;-70
2024/04/07 10:41:23;;;;;;;;;;;18.80;64.20;;;;;;5047912;28;1945;-70
2024/04/07 10:43:49;;;;;;;;;;;18.80;64.20;;;;;;5038505;28;1355;-70
2024/04/07 10:46:14;;;;;;;;;;;18.80;64.10;;;;;;5037627;28;1399;-70
2024/04/07 10:48:40;;;;;;;;;;;18.80;64.50;;;;;;5047639;28;1414;-70
2024/04/07 10:51:06;;;;;;;;;;;18.80;65.20;;;;;;5040467;28;1307;-70
2024/04/07 10:53:32;;;;;;;;;;;18.80;64.80;;;;;;5039901;28;1560;-70
2024/04/07 10:55:57;;;;;;;;;;;18.70;64.60;;;;;;5052956;28;1590;-70
2024/04/07 10:58:23;;;;;;;;;;;18.80;64.20;;;;;;5036202;28;1351;-70
2024/04/07 11:00:48;;;;;;;;;;;18.70;64.50;;;;;;5041250;28;1910;-70
2024/04/07 11:03:14;;;;;;;;;;;18.70;65.00;;;;;;5069558;28;1498;-70
2024/04/07 11:05:42;;;;;;;;;;;18.70;64.90;;;;;;5053607;28;1722;-70
2024/04/07 11:08:08;;;;;;;;;;;18.70;64.90;;;;;;5054222;28;2177;-70
2024/04/07 11:10:37;;;;;;;;;;;18.70;64.90;;;;;;5076467;28;1520;-70
2024/04/07 11:13:03;;;;;;;;;;;18.70;64.70;;;;;;5070408;28;1424;-70
2024/04/07 11:15:29;;;;;;;;;;;18.70;64.80;;;;;;5071511;28;1374;-71
2024/04/07 11:17:54;;;;;;;;;;;18.70;65.10;;;;;;5041581;28;1572;-70
2024/04/07 11:20:20;;;;;;;;;;;18.70;64.80;;;;;;5039424;28;1918;-70
2024/04/07 11:22:45;;;;;;;;;;;18.70;64.80;;;;;;5059054;28;1871;-70
2024/04/07 11:25:10;;;;;;;;;;;18.70;65.00;;;;;;5044626;28;1461;-70
2024/04/07 11:27:36;;;;;;;;;;;18.70;65.40;;;;;;5059764;28;1416;-70
2024/04/07 11:30:02;;;;;;;;;;;18.70;65.50;;;;;;5029652;28;1571;-70
2024/04/07 11:32:27;;;;;;;;;;;18.70;65.10;;;;;;5044440;28;1689;-70
2024/04/07 11:34:53;;;;;;;;;;;18.70;65.10;;;;;;5070823;28;1489;-70
2024/04/07 11:37:18;;;;;;;;;;;18.70;65.60;;;;;;5044472;28;1384;-70
2024/04/07 11:39:50;;;;;;;;;;;18.70;64.90;;;;;;5042947;28;1402;-71
2024/04/07 11:42:15;;;;;;;;;;;18.70;64.80;;;;;;5071181;28;1959;-72
2024/04/07 11:44:41;;;;;;;;;;;18.70;65.00;;;;;;5049539;28;1390;-71
2024/04/07 11:47:06;;;;;;;;;;;18.70;65.40;;;;;;5059744;28;1788;-71
2024/04/07 11:49:33;;;;;;;;;;;18.70;65.30;;;;;;5041559;28;1250;-71
2024/04/07 11:51:59;;;;;;;;;;;18.80;65.20;;;;;;5041669;28;1537;-71
2024/04/07 11:54:24;;;;;;;;;;;18.70;65.50;;;;;;5072544;28;1296;-71
2024/04/07 11:56:51;;;;;;;;;;;18.70;65.40;;;;;;5042151;28;1471;-71
2024/04/07 11:59:16;;;;;;;;;;;18.70;65.10;;;;;;5073318;28;1648;-71
2024/04/07 12:01:42;;;;;;;;;;;18.70;64.80;;;;;;5076217;28;1902;-71
2024/04/07 12:04:07;;;;;;;;;;;18.60;64.70;;;;;;5073796;28;1620;-71
2024/04/07 12:06:33;;;;;;;;;;;18.70;64.40;;;;;;5040599;28;2009;-71
2024/04/07 12:08:58;;;;;;;;;;;18.60;64.50;;;;;;5043325;28;1573;-71
2024/04/07 12:11:24;;;;;;;;;;;18.60;64.80;;;;;;5041997;28;1393;-71
2024/04/07 12:13:49;;;;;;;;;;;18.60;64.80;;;;;;5043433;28;1293;-72
2024/04/07 12:16:15;;;;;;;;;;;18.60;64.80;;;;;;5043988;28;1689;-72
2024/04/07 12:18:40;;;;;;;;;;;18.60;65.00;;;;;;5039183;28;1311;-72
2024/04/07 12:21:06;;;;;;;;;;;18.70;65.10;;;;;;5044214;28;1918;-71
2024/04/07 12:23:31;;;;;;;;;;;18.70;65.00;;;;;;5042693;28;1515;-71
2024/04/07 12:25:57;;;;;;;;;;;18.70;65.10;;;;;;5070112;28;1345;-72
2024/04/07 12:28:22;;;;;;;;;;;18.70;65.20;;;;;;5042221;28;1455;-72
2024/04/07 12:30:50;;;;;;;;;;;18.70;63.60;;;;;;5074562;28;1416;-72
2024/04/07 12:33:16;;;;;;;;;;;18.80;63.60;;;;;;5072413;28;1475;-72
2024/04/07 12:35:42;;;;;;;;;;;18.80;63.80;;;;;;5040910;28;1658;-72
2024/04/07 12:38:08;;;;;;;;;;;18.80;64.10;;;;;;5039077;28;1251;-72
2024/04/07 12:40:34;;;;;;;;;;;18.90;63.40;;;;;;5074338;28;1927;-72
2024/04/07 12:42:59;;;;;;;;;;;18.90;63.30;;;;;;5073343;28;1560;-72
2024/04/07 12:45:25;;;;;;;;;;;18.90;63.50;;;;;;5058633;28;1667;-71
2024/04/07 12:47:50;;;;;;;;;;;18.90;62.10;;;;;;5041535;28;1453;-72
2024/04/07 12:50:16;;;;;;;;;;;18.90;62.60;;;;;;5040434;28;1447;-72
2024/04/07 12:52:42;;;;;;;;;;;18.90;62.90;;;;;;5040898;28;1659;-72
2024/04/07 12:55:09;;;;;;;;;;;18.90;63.10;;;;;;5070237;28;1290;-72
2024/04/07 12:57:35;;;;;;;;;;;18.90;63.40;;;;;;5040045;28;1444;-72
2024/04/07 13:00:01;;;;;;;;;;;19.00;62.50;;;;;;5040718;28;1544;-71
2024/04/07 13:02:26;;;;;;;;;;;19.00;62.00;;;;;;5041036;28;1985;-71
2024/04/07 13:04:52;;;;;;;;;;;19.00;61.50;;;;;;5031982;28;1502;-71
2024/04/07 13:07:17;;;;;;;;;;;19.00;61.80;;;;;;5072161;28;1595;-71
2024/04/07 13:09:43;;;;;;;;;;;19.00;62.60;;;;;;5037888;28;1967;-71
2024/04/07 13:12:08;;;;;;;;;;;19.00;63.60;;;;;;5039721;28;1324;-71
2024/04/07 13:14:35;;;;;;;;;;;19.00;63.50;;;;;;5044885;28;1181;-71
2024/04/07 13:17:00;;;;;;;;;;;19.00;63.60;;;;;;5041884;28;1272;-71
2024/04/07 13:19:26;;;;;;;;;;;19.00;63.30;;;;;;5041808;28;1486;-71
2024/04/07 13:21:51;;;;;;;;;;;19.00;63.20;;;;;;5042598;28;1917;-72
2024/04/07 13:24:17;;;;;;;;;;;19.00;63.30;;;;;;5072384;28;1404;-71
2024/04/07 13:26:42;;;;;;;;;;;19.00;63.40;;;;;;5037780;28;1830;-71
2024/04/07 13:29:08;;;;;;;;;;;19.00;62.80;;;;;;5038536;28;1382;-71
2024/04/07 13:31:33;;;;;;;;;;;19.00;62.70;;;;;;5041343;28;1204;-71
2024/04/07 13:34:02;;;;;;;;;;;19.10;62.70;;;;;;5046573;28;1159;-71
2024/04/07 13:36:27;;;;;;;;;;;19.00;62.70;;;;;;5071835;28;1263;-72
2024/04/07 13:38:53;;;;;;;;;;;19.10;62.10;;;;;;5037194;28;1588;-70
2024/04/07 13:41:18;;;;;;;;;;;19.10;61.30;;;;;;5038443;28;1922;-71
2024/04/07 13:43:44;;;;;;;;;;;19.10;60.90;;;;;;5047101;28;1183;-71
2024/04/07 13:46:10;;;;;;;;;;;19.10;62.00;;;;;;5039528;28;1371;-72
2024/04/07 13:48:37;;;;;;;;;;;19.20;62.00;;;;;;5037634;28;930;-71
2024/04/07 13:51:02;;;;;;;;;;;19.20;62.40;;;;;;5039942;28;1351;-72
2024/04/07 13:53:28;;;;;;;;;;;19.20;61.70;;;;;;5041507;28;1365;-71
2024/04/07 13:55:53;;;;;;;;;;;19.20;61.90;;;;;;5054766;28;1378;-71
2024/04/07 13:58:19;;;;;;;;;;;19.10;62.90;;;;;;5038544;28;1411;-72
2024/04/07 14:00:45;;;;;;;;;;;19.10;62.20;;;;;;5038438;28;1903;-72
2024/04/07 14:03:10;;;;;;;;;;;19.10;62.80;;;;;;5038916;28;1237;-71
2024/04/07 14:05:37;;;;;;;;;;;19.10;63.00;;;;;;5038344;28;1608;-72
2024/04/07 14:08:04;;;;;;;;;;;19.10;62.80;;;;;;5040398;28;1480;-71
2024/04/07 14:10:30;;;;;;;;;;;19.10;62.60;;;;;;5039055;28;1368;-71
2024/04/07 14:12:56;;;;;;;;;;;19.10;62.60;;;;;;5040323;28;1393;-71
2024/04/07 14:15:21;;;;;;;;;;;19.10;62.70;;;;;;5040114;28;1294;-71
2024/04/07 14:17:47;;;;;;;;;;;19.20;62.70;;;;;;5038860;28;1812;-72
2024/04/07 14:20:14;;;;;;;;;;;19.20;61.60;;;;;;5038652;28;1547;-72
2024/04/07 14:22:39;;;;;;;;;;;19.20;61.30;;;;;;5041487;28;1976;-72
2024/04/07 14:25:05;;;;;;;;;;;19.20;61.00;;;;;;5040503;28;1586;-72